Argo, Illinois
Current Conditions -  °F | °C
As of 2:27 PM on Monday 22 Dec 2014 (Local Time) from KMDW Reporting Station
Light Rain Light Rain  
Wind Chill: 32°   Ceiling: 900
Heat Index: 39°   Visibility: 3mi
Dew Point: 35°   Wind: 10mph
Humidity: 86%   Direction: 100°E
Pressure: 29.73"   Gusts: NA
Location:  41.7806°N, 87.8151°W
Report Text: KMDW 222027Z 10009KT 3SM -RA BR OVC009 04/02 A2973 RMK AO2 P0002 T00390017
Loading
Personal Weather Stations






























Interactive Weather Map New forecast layout! Learn more

10-Day Weather Forecast

Advertisements
Track Severe Weather on mobile